Time;durP1;ratioP1;P1;durP2;ratioP2;P2;SDS_P1;SDS_P2;PMS_P1;PMS_P2;Temp;Humidity;BMP_temperature;BMP_pressure;BME280_temperature;BME280_humidity;BME280_pressure;Samples;Min_cycle;Max_cycle;Signal;HPM_P1;HPM_P2
2023/08/21 00:01:20;;;;;;;1999.90;999.90;;;13.30;99.90;;;;;;5085561;28;20032;-66
2023/08/21 00:03:45;;;;;;;1999.90;999.90;;;13.30;99.90;;;;;;5095328;28;20044;-66
2023/08/21 00:06:11;;;;;;;1999.90;999.90;;;13.30;99.90;;;;;;5087245;28;20052;-66
2023/08/21 00:08:37;;;;;;;1999.90;999.90;;;13.30;99.90;;;;;;5082325;28;20576;-66
2023/08/21 00:11:02;;;;;;;1999.90;999.90;;;13.20;99.90;;;;;;5065983;28;20125;-66
2023/08/21 00:13:28;;;;;;;1999.90;999.90;;;13.20;99.90;;;;;;5083070;28;20071;-66
2023/08/21 00:15:55;;;;;;;1999.90;999.90;;;13.20;99.90;;;;;;5087483;28;20514;-66
2023/08/21 00:18:21;;;;;;;1999.90;999.90;;;13.20;99.90;;;;;;5082089;28;20048;-66
2023/08/21 00:20:47;;;;;;;1999.90;999.90;;;13.20;99.90;;;;;;5087504;28;20112;-66
2023/08/21 00:23:12;;;;;;;1999.90;999.90;;;13.20;99.90;;;;;;5066369;28;20537;-66
2023/08/21 00:25:38;;;;;;;1999.90;999.90;;;13.20;99.90;;;;;;5099630;28;20033;-66
2023/08/21 00:28:04;;;;;;;1999.90;999.90;;;13.20;99.90;;;;;;5078214;28;20126;-66
2023/08/21 00:30:30;;;;;;;1999.90;999.90;;;13.10;99.90;;;;;;5084386;28;20044;-66
2023/08/21 00:32:55;;;;;;;1999.90;999.90;;;13.10;99.90;;;;;;5084577;28;20043;-66
2023/08/21 00:35:21;;;;;;;1999.90;999.90;;;13.10;99.90;;;;;;5088218;28;20169;-67
2023/08/21 00:37:46;;;;;;;1999.90;999.90;;;13.00;99.90;;;;;;5088897;28;20055;-66
2023/08/21 00:40:12;;;;;;;1999.90;999.90;;;13.00;99.90;;;;;;5086076;28;20115;-66
2023/08/21 00:42:38;;;;;;;1999.90;999.90;;;13.00;99.90;;;;;;5087368;28;20036;-66
2023/08/21 00:45:04;;;;;;;1999.90;999.90;;;12.90;99.90;;;;;;5083776;28;20043;-66
2023/08/21 00:47:30;;;;;;;1999.90;999.90;;;12.90;99.90;;;;;;5084643;28;20047;-66
2023/08/21 00:49:56;;;;;;;1999.90;999.90;;;12.90;99.90;;;;;;5070070;28;20036;-66
2023/08/21 00:52:22;;;;;;;1999.90;999.90;;;12.90;99.90;;;;;;5086046;28;20081;-66
2023/08/21 00:54:48;;;;;;;1999.90;999.90;;;12.90;99.90;;;;;;5069913;28;20028;-66
2023/08/21 00:57:14;;;;;;;1999.90;999.90;;;12.90;99.90;;;;;;5086580;28;20503;-66
2023/08/21 00:59:40;;;;;;;1999.90;999.90;;;12.90;99.90;;;;;;5086262;28;20097;-66
2023/08/21 01:02:06;;;;;;;1999.90;999.90;;;12.90;99.90;;;;;;5083844;28;20032;-66
2023/08/21 01:04:32;;;;;;;1999.90;999.90;;;12.80;99.90;;;;;;5080724;28;20114;-66
2023/08/21 01:06:58;;;;;;;1999.90;999.90;;;12.90;99.90;;;;;;5075310;28;20052;-66
2023/08/21 01:09:48;;;;;;;1999.90;999.90;;;12.80;99.90;;;;;;5063727;28;20036;-66
2023/08/21 01:12:17;;;;;;;1999.90;999.90;;;12.80;99.90;;;;;;5082840;28;20047;-66
2023/08/21 01:15:00;;;;;;;1999.90;999.90;;;12.80;99.90;;;;;;5101995;28;20044;-66
2023/08/21 01:17:33;;;;;;;1999.90;999.90;;;12.70;99.90;;;;;;5085069;28;20101;-66
2023/08/21 01:20:00;;;;;;;1999.90;999.90;;;12.70;99.90;;;;;;5088257;28;20107;-66
2023/08/21 01:22:39;;;;;;;1999.90;999.90;;;12.60;99.90;;;;;;5083680;28;20040;-66
2023/08/21 01:25:06;;;;;;;1999.90;999.90;;;12.60;99.90;;;;;;5083121;28;20087;-66
2023/08/21 01:27:33;;;;;;;1999.90;999.90;;;12.60;99.90;;;;;;5084453;28;20036;-66
2023/08/21 01:30:00;;;;;;;1999.90;999.90;;;12.60;99.90;;;;;;5066259;28;20043;-66
2023/08/21 01:32:41;;;;;;;1999.90;999.90;;;12.50;99.90;;;;;;5084165;28;20051;-66
2023/08/21 01:35:09;;;;;;;1999.90;999.90;;;12.50;99.90;;;;;;5094459;28;20044;-66
2023/08/21 01:37:36;;;;;;;1999.90;999.90;;;12.50;99.90;;;;;;5069319;28;20040;-66
2023/08/21 01:40:02;;;;;;;1999.90;999.90;;;12.40;99.90;;;;;;5086106;28;20036;-66
2023/08/21 01:42:27;;;;;;;1999.90;999.90;;;12.40;99.90;;;;;;5066961;28;20090;-66
2023/08/21 01:44:53;;;;;;;1999.90;999.90;;;12.40;99.90;;;;;;5086133;28;20395;-66
2023/08/21 01:47:18;;;;;;;1999.90;999.90;;;12.40;99.90;;;;;;5085541;28;20045;-67
2023/08/21 01:49:44;;;;;;;1999.90;999.90;;;12.40;99.90;;;;;;5076227;28;20033;-66
2023/08/21 01:52:09;;;;;;;1999.90;999.90;;;12.40;99.90;;;;;;5086200;28;20122;-66
2023/08/21 01:54:36;;;;;;;1999.90;999.90;;;12.30;99.90;;;;;;5101763;28;20036;-67
2023/08/21 01:57:01;;;;;;;1999.90;999.90;;;12.30;99.90;;;;;;5067560;28;20125;-66
2023/08/21 01:59:27;;;;;;;1999.90;999.90;;;12.30;99.90;;;;;;5067148;28;20124;-66
2023/08/21 02:01:53;;;;;;;1999.90;999.90;;;12.30;99.90;;;;;;5083808;28;20097;-67
2023/08/21 02:04:19;;;;;;;1999.90;999.90;;;12.20;99.90;;;;;;5085429;28;20052;-66
2023/08/21 02:06:45;;;;;;;1999.90;999.90;;;12.20;99.90;;;;;;5081541;28;20066;-67
2023/08/21 02:09:11;;;;;;;1999.90;999.90;;;12.20;99.90;;;;;;5065112;28;20053;-66
2023/08/21 02:11:36;;;;;;;1999.90;999.90;;;12.20;99.90;;;;;;5098633;28;20047;-66
2023/08/21 02:14:02;;;;;;;1999.90;999.90;;;12.20;99.90;;;;;;5081258;28;20044;-66
2023/08/21 02:16:28;;;;;;;1999.90;999.90;;;12.20;99.90;;;;;;5089504;28;20047;-67
2023/08/21 02:18:54;;;;;;;1999.90;999.90;;;12.20;99.90;;;;;;5067438;28;20408;-66
2023/08/21 02:21:20;;;;;;;1999.90;999.90;;;12.10;99.90;;;;;;5072413;28;20075;-67
2023/08/21 02:23:46;;;;;;;1999.90;999.90;;;12.10;99.90;;;;;;5063764;28;20095;-66
2023/08/21 02:26:11;;;;;;;1999.90;999.90;;;12.10;99.90;;;;;;5084357;28;20048;-66
2023/08/21 02:28:37;;;;;;;1999.90;999.90;;;12.10;99.90;;;;;;5089057;28;20036;-67
2023/08/21 02:31:03;;;;;;;1999.90;999.90;;;12.10;99.90;;;;;;5089991;28;20047;-66
2023/08/21 02:33:28;;;;;;;1999.90;999.90;;;12.10;99.90;;;;;;5088843;28;20064;-66
2023/08/21 02:35:54;;;;;;;1999.90;999.90;;;12.10;99.90;;;;;;5088412;28;20374;-66
2023/08/21 02:38:20;;;;;;;1999.90;999.90;;;12.10;99.90;;;;;;5088384;28;20044;-66
2023/08/21 02:40:47;;;;;;;1999.90;999.90;;;12.10;99.90;;;;;;5066642;28;20124;-67
2023/08/21 02:43:13;;;;;;;1999.90;999.90;;;12.10;99.90;;;;;;5087952;28;20040;-67
2023/08/21 02:45:38;;;;;;;1999.90;999.90;;;12.10;99.90;;;;;;5089305;28;20051;-66
2023/08/21 02:48:04;;;;;;;1999.90;999.90;;;12.10;99.90;;;;;;5090501;28;20093;-67
2023/08/21 02:50:30;;;;;;;1999.90;999.90;;;12.00;99.90;;;;;;5087266;28;20039;-67
2023/08/21 02:52:56;;;;;;;1999.90;999.90;;;12.00;99.90;;;;;;5086944;28;20031;-66
2023/08/21 02:55:22;;;;;;;1999.90;999.90;;;12.00;99.90;;;;;;5081289;28;20044;-67
2023/08/21 02:57:47;;;;;;;1999.90;999.90;;;11.90;99.90;;;;;;5085976;28;20067;-67
2023/08/21 03:00:13;;;;;;;1999.90;999.90;;;11.90;99.90;;;;;;5091712;28;20035;-67
2023/08/21 03:02:42;;;;;;;1999.90;999.90;;;11.90;99.90;;;;;;5070999;28;20032;-67
2023/08/21 03:05:09;;;;;;;1999.90;999.90;;;11.80;99.90;;;;;;5087443;28;20060;-67
2023/08/21 03:07:35;;;;;;;1999.90;999.90;;;11.90;99.90;;;;;;5086974;28;20051;-67
2023/08/21 03:10:02;;;;;;;1999.90;999.90;;;11.90;99.90;;;;;;5087487;28;20032;-66
2023/08/21 03:12:27;;;;;;;1999.90;999.90;;;11.90;99.90;;;;;;5087771;28;20039;-67
2023/08/21 03:14:53;;;;;;;1999.90;999.90;;;12.00;99.90;;;;;;5069028;28;20047;-67
2023/08/21 03:17:19;;;;;;;1999.90;999.90;;;12.00;99.90;;;;;;5087457;28;20089;-67
2023/08/21 03:19:44;;;;;;;1999.90;999.90;;;12.00;99.90;;;;;;5087968;28;20120;-67
2023/08/21 03:22:10;;;;;;;1999.90;999.90;;;12.10;99.90;;;;;;5087980;28;20111;-67
2023/08/21 03:24:36;;;;;;;1999.90;999.90;;;12.10;99.90;;;;;;5086684;28;20040;-66
2023/08/21 03:27:02;;;;;;;1999.90;999.90;;;12.10;99.90;;;;;;5087242;28;20059;-66
2023/08/21 03:29:27;;;;;;;1999.90;999.90;;;12.20;99.90;;;;;;5088315;28;20044;-67
2023/08/21 03:31:56;;;;;;;1999.90;999.90;;;12.20;99.90;;;;;;5087190;28;20039;-67
2023/08/21 03:34:22;;;;;;;1999.90;999.90;;;12.20;99.90;;;;;;5085611;28;20150;-67
2023/08/21 03:36:48;;;;;;;1999.90;999.90;;;12.20;99.90;;;;;;5088598;28;20491;-67
2023/08/21 03:39:13;;;;;;;1999.90;999.90;;;12.10;99.90;;;;;;5101466;28;20044;-67
2023/08/21 03:41:39;;;;;;;1999.90;999.90;;;12.10;99.90;;;;;;5088284;28;20040;-67
2023/08/21 03:44:05;;;;;;;1999.90;999.90;;;12.10;99.90;;;;;;5087080;28;20128;-66
2023/08/21 03:46:30;;;;;;;1999.90;999.90;;;12.10;99.90;;;;;;5089971;28;20140;-66
2023/08/21 03:48:56;;;;;;;1999.90;999.90;;;12.00;99.90;;;;;;5089395;28;20036;-66
2023/08/21 03:51:22;;;;;;;1999.90;999.90;;;12.00;99.90;;;;;;5083407;28;20044;-66
2023/08/21 03:53:47;;;;;;;1999.90;999.90;;;12.00;99.90;;;;;;5088353;28;20043;-67
2023/08/21 03:56:13;;;;;;;1999.90;999.90;;;12.00;99.90;;;;;;5091360;28;20036;-66
2023/08/21 03:58:38;;;;;;;1999.90;999.90;;;12.00;99.90;;;;;;5087693;28;20044;-66
2023/08/21 04:01:04;;;;;;;1999.90;999.90;;;12.00;99.90;;;;;;5099694;28;20044;-66
2023/08/21 04:03:29;;;;;;;1999.90;999.90;;;12.00;99.90;;;;;;5069306;28;20040;-67
2023/08/21 04:05:56;;;;;;;1999.90;999.90;;;11.90;99.90;;;;;;5089145;28;20128;-67
2023/08/21 04:08:22;;;;;;;1999.90;999.90;;;11.90;99.90;;;;;;5083857;28;20047;-67
2023/08/21 04:10:48;;;;;;;1999.90;999.90;;;11.90;99.90;;;;;;5066079;28;20055;-67
2023/08/21 04:13:14;;;;;;;1999.90;999.90;;;11.80;99.90;;;;;;5086534;28;20043;-67
2023/08/21 04:15:45;;;;;;;1999.90;999.90;;;11.80;99.90;;;;;;5086913;28;20503;-67
2023/08/21 04:18:10;;;;;;;1999.90;999.90;;;11.80;99.90;;;;;;5087644;28;20079;-67
2023/08/21 04:20:36;;;;;;;1999.90;999.90;;;11.90;99.90;;;;;;5087815;28;20071;-67
2023/08/21 04:23:02;;;;;;;1999.90;999.90;;;11.90;99.90;;;;;;5082411;28;20119;-67
2023/08/21 04:25:27;;;;;;;1999.90;999.90;;;11.90;99.90;;;;;;5087167;28;20036;-67
2023/08/21 04:27:53;;;;;;;1999.90;999.90;;;11.80;99.90;;;;;;5085842;28;20043;-67
2023/08/21 04:30:19;;;;;;;1999.90;999.90;;;11.80;99.90;;;;;;5087690;28;20152;-67
2023/08/21 04:32:44;;;;;;;1999.90;999.90;;;11.80;99.90;;;;;;5088649;28;20028;-66
2023/08/21 04:35:10;;;;;;;1999.90;999.90;;;11.90;99.90;;;;;;5084065;28;20040;-67
2023/08/21 04:37:38;;;;;;;1999.90;999.90;;;11.90;99.90;;;;;;5087309;28;20071;-67
2023/08/21 04:40:04;;;;;;;1999.90;999.90;;;11.90;99.90;;;;;;5082036;28;20040;-67
2023/08/21 04:42:29;;;;;;;1999.90;999.90;;;11.90;99.90;;;;;;5066952;28;20101;-67
2023/08/21 04:44:55;;;;;;;1999.90;999.90;;;11.90;99.90;;;;;;5087249;28;20042;-67
2023/08/21 04:47:26;;;;;;;1999.90;999.90;;;11.90;99.90;;;;;;5088372;28;20546;-67
2023/08/21 04:49:52;;;;;;;1999.90;999.90;;;11.90;99.90;;;;;;5084962;28;20403;-67
2023/08/21 04:52:18;;;;;;;1999.90;999.90;;;11.90;99.90;;;;;;5059743;28;20546;-67
2023/08/21 04:54:44;;;;;;;1999.90;999.90;;;11.90;99.90;;;;;;5083236;28;20032;-67
2023/08/21 04:57:09;;;;;;;1999.90;999.90;;;11.90;99.90;;;;;;5098522;28;20776;-67
2023/08/21 04:59:36;;;;;;;1999.90;999.90;;;12.00;99.90;;;;;;5098273;28;20043;-67
2023/08/21 05:02:02;;;;;;;1999.90;999.90;;;12.00;99.90;;;;;;5084996;28;20139;-67
2023/08/21 05:04:27;;;;;;;1999.90;999.90;;;12.10;99.90;;;;;;5086335;28;20131;-67
2023/08/21 05:06:53;;;;;;;1999.90;999.90;;;12.20;99.90;;;;;;5068164;28;20491;-67
2023/08/21 05:09:18;;;;;;;1999.90;999.90;;;12.30;99.90;;;;;;5099792;28;20044;-67
2023/08/21 05:11:44;;;;;;;1999.90;999.90;;;12.40;99.90;;;;;;5062993;28;20033;-67
2023/08/21 05:14:10;;;;;;;1999.90;999.90;;;12.50;99.90;;;;;;5098217;28;20048;-67
2023/08/21 05:16:35;;;;;;;1999.90;999.90;;;12.50;99.90;;;;;;5084075;28;20075;-67
2023/08/21 05:19:01;;;;;;;1999.90;999.90;;;12.40;99.90;;;;;;5099474;28;20059;-67
2023/08/21 05:21:27;;;;;;;1999.90;999.90;;;12.50;99.90;;;;;;5067485;28;20044;-67
2023/08/21 05:23:53;;;;;;;1999.90;999.90;;;12.50;99.90;;;;;;5084994;28;20036;-67
2023/08/21 05:26:19;;;;;;;1999.90;999.90;;;12.50;99.90;;;;;;5084941;28;21642;-67
2023/08/21 05:28:45;;;;;;;1999.90;999.90;;;12.50;99.90;;;;;;5085999;28;20102;-67
2023/08/21 05:31:11;;;;;;;1999.90;999.90;;;12.60;99.90;;;;;;5081167;28;20040;-67
2023/08/21 05:33:37;;;;;;;1999.90;999.90;;;12.60;99.90;;;;;;5083197;28;20042;-67
2023/08/21 05:36:02;;;;;;;1999.90;999.90;;;12.70;99.90;;;;;;5085673;28;20377;-67
2023/08/21 05:38:28;;;;;;;1999.90;999.90;;;12.70;99.90;;;;;;5068567;28;20040;-67
2023/08/21 05:40:54;;;;;;;1999.90;999.90;;;13.00;99.90;;;;;;5095421;28;20051;-67
2023/08/21 05:43:19;;;;;;;1999.90;999.90;;;13.10;99.90;;;;;;5097819;28;20626;-67
2023/08/21 05:45:45;;;;;;;1999.90;999.90;;;13.20;99.90;;;;;;5069588;28;20035;-67
2023/08/21 05:48:10;;;;;;;1999.90;999.90;;;13.20;99.90;;;;;;5093525;28;20054;-67
2023/08/21 05:50:36;;;;;;;1999.90;999.90;;;13.30;99.90;;;;;;5071720;28;20059;-67
2023/08/21 05:53:03;;;;;;;1999.90;999.90;;;13.50;99.90;;;;;;5089254;28;20388;-67
2023/08/21 05:55:29;;;;;;;1999.90;999.90;;;13.60;99.90;;;;;;5089554;28;20119;-67
2023/08/21 05:57:55;;;;;;;1999.90;999.90;;;13.70;99.90;;;;;;5072839;28;20126;-67
2023/08/21 06:00:20;;;;;;;1999.90;999.90;;;13.80;99.90;;;;;;5084533;28;20032;-68
2023/08/21 06:02:46;;;;;;;1999.90;999.90;;;14.00;99.90;;;;;;5100986;28;20090;-67
2023/08/21 06:05:12;;;;;;;1999.90;999.90;;;14.10;99.90;;;;;;5084675;28;20052;-68
2023/08/21 06:07:40;;;;;;;1999.90;999.90;;;14.20;99.90;;;;;;5106816;28;20105;-68
2023/08/21 06:10:07;;;;;;;1999.90;999.90;;;14.40;99.90;;;;;;5088524;28;20047;-68
2023/08/21 06:12:32;;;;;;;1999.90;999.90;;;14.50;99.90;;;;;;5090048;28;20488;-67
2023/08/21 06:14:58;;;;;;;1999.90;999.90;;;14.60;99.90;;;;;;5067858;28;20039;-67
2023/08/21 06:17:23;;;;;;;1999.90;999.90;;;14.80;99.90;;;;;;5097857;28;20079;-68
2023/08/21 06:19:49;;;;;;;1999.90;999.90;;;14.90;99.90;;;;;;5070088;28;20399;-68
2023/08/21 06:22:15;;;;;;;1999.90;999.90;;;15.20;99.90;;;;;;5086829;28;20051;-67
2023/08/21 06:24:41;;;;;;;1999.90;999.90;;;15.30;99.90;;;;;;5082044;28;20050;-68
2023/08/21 06:27:07;;;;;;;1999.90;999.90;;;15.30;99.90;;;;;;5073111;28;20084;-68
2023/08/21 06:29:33;;;;;;;1999.90;999.90;;;15.40;99.90;;;;;;5090312;28;20126;-68
2023/08/21 06:31:58;;;;;;;1999.90;999.90;;;15.50;99.90;;;;;;5090445;28;20052;-68
2023/08/21 06:34:24;;;;;;;1999.90;999.90;;;15.60;99.90;;;;;;5072205;28;20043;-67
2023/08/21 06:36:50;;;;;;;1999.90;999.90;;;15.60;99.90;;;;;;5090175;28;20101;-68
2023/08/21 06:39:15;;;;;;;1999.90;999.90;;;15.80;99.90;;;;;;5088318;28;20403;-68
2023/08/21 06:41:41;;;;;;;1999.90;999.90;;;15.80;99.90;;;;;;5090053;28;20044;-68
2023/08/21 06:44:06;;;;;;;1999.90;999.90;;;16.00;99.90;;;;;;5079481;28;20039;-67
2023/08/21 06:46:32;;;;;;;1999.90;999.90;;;16.10;99.90;;;;;;5085648;28;20470;-68
2023/08/21 06:48:58;;;;;;;1999.90;999.90;;;16.20;99.90;;;;;;5100159;28;20122;-67
2023/08/21 06:51:23;;;;;;;1999.90;999.90;;;16.40;99.90;;;;;;5097033;28;20048;-68
2023/08/21 06:53:49;;;;;;;1999.90;999.90;;;16.50;99.90;;;;;;5084926;28;20055;-67
2023/08/21 06:56:15;;;;;;;1999.90;999.90;;;16.60;99.90;;;;;;5065018;28;20156;-68
2023/08/21 06:58:41;;;;;;;1999.90;999.90;;;16.70;99.90;;;;;;5085863;28;20468;-68
2023/08/21 07:01:06;;;;;;;1999.90;999.90;;;17.10;99.90;;;;;;5102374;28;20085;-68
2023/08/21 07:03:32;;;;;;;1999.90;999.90;;;17.40;99.90;;;;;;5087838;28;20039;-68
2023/08/21 07:05:59;;;;;;;1999.90;999.90;;;17.50;99.90;;;;;;5087462;28;20059;-67
2023/08/21 07:08:25;;;;;;;1999.90;999.90;;;17.60;99.90;;;;;;5087367;28;20071;-69
2023/08/21 07:10:52;;;;;;;1999.90;999.90;;;17.60;99.90;;;;;;5083664;28;20143;-68
2023/08/21 07:13:19;;;;;;;1999.90;999.90;;;17.70;99.90;;;;;;5088200;28;20482;-68
2023/08/21 07:15:46;;;;;;;1999.90;999.90;;;17.80;99.90;;;;;;5095256;28;20416;-68
2023/08/21 07:18:11;;;;;;;1999.90;999.90;;;17.90;99.90;;;;;;5087854;28;20047;-68
2023/08/21 07:20:37;;;;;;;1999.90;999.90;;;18.00;99.90;;;;;;5089519;28;20024;-68
2023/08/21 07:23:03;;;;;;;1999.90;999.90;;;18.10;99.90;;;;;;5088291;28;20480;-68
2023/08/21 07:25:28;;;;;;;1999.90;999.90;;;18.20;99.90;;;;;;5084281;28;20503;-69
2023/08/21 07:27:56;;;;;;;1999.90;999.90;;;18.30;99.90;;;;;;5085763;28;20497;-68
2023/08/21 07:30:24;;;;;;;1999.90;999.90;;;18.40;99.90;;;;;;5085888;28;20048;-68
2023/08/21 07:32:50;;;;;;;1999.90;999.90;;;18.60;99.90;;;;;;5082964;28;20048;-68
2023/08/21 07:35:15;;;;;;;1999.90;999.90;;;18.60;99.90;;;;;;5098194;28;20046;-69
2023/08/21 07:37:45;;;;;;;1999.90;999.90;;;18.80;99.90;;;;;;5069563;28;20044;-68
2023/08/21 07:40:11;;;;;;;1999.90;999.90;;;18.90;99.90;;;;;;5087592;28;20046;-68
2023/08/21 07:42:37;;;;;;;1999.90;999.90;;;19.00;99.90;;;;;;5068415;28;20575;-68
2023/08/21 07:45:02;;;;;;;1999.90;999.90;;;19.10;99.90;;;;;;5090474;28;20057;-68
2023/08/21 07:47:28;;;;;;;1999.90;999.90;;;19.20;99.90;;;;;;5084486;28;20036;-68
2023/08/21 07:49:55;;;;;;;1999.90;999.90;;;19.30;99.90;;;;;;5082335;28;20039;-68
2023/08/21 07:52:21;;;;;;;1999.90;999.90;;;19.30;99.90;;;;;;5084912;28;20052;-68
2023/08/21 07:54:46;;;;;;;1999.90;999.90;;;19.40;99.90;;;;;;5081564;28;20055;-68
2023/08/21 07:57:13;;;;;;;1999.90;999.90;;;19.50;99.90;;;;;;5072741;28;20062;-68
2023/08/21 07:59:38;;;;;;;1999.90;999.90;;;19.50;99.90;;;;;;5070673;28;20065;-68
2023/08/21 08:02:04;;;;;;;1999.90;999.90;;;19.60;99.90;;;;;;5081729;28;20027;-68
2023/08/21 08:04:30;;;;;;;1999.90;999.90;;;19.60;99.90;;;;;;5087812;28;20461;-68
2023/08/21 08:06:56;;;;;;;1999.90;999.90;;;19.70;99.90;;;;;;5082857;28;20412;-69
2023/08/21 08:09:22;;;;;;;1999.90;999.90;;;19.80;99.90;;;;;;5086027;28;20040;-68
2023/08/21 08:11:47;;;;;;;1999.90;999.90;;;19.90;99.90;;;;;;5102846;28;20101;-68
2023/08/21 08:14:13;;;;;;;120.00;114.70;;;20.00;99.90;;;;;;5084322;28;20040;-69
2023/08/21 08:16:39;;;;;;;159.50;152.52;;;20.00;99.90;;;;;;5069149;28;20396;-68
2023/08/21 08:19:04;;;;;;;296.02;282.20;;;20.10;99.90;;;;;;5081898;28;20078;-69
2023/08/21 08:21:30;;;;;;;275.58;263.48;;;20.10;99.90;;;;;;5081538;28;20395;-69
2023/08/21 08:23:56;;;;;;;212.15;203.10;;;20.30;99.90;;;;;;5090968;28;20036;-69
2023/08/21 08:26:22;;;;;;;296.58;283.45;;;20.30;99.90;;;;;;5078853;28;20044;-68
2023/08/21 08:28:47;;;;;;;256.35;244.95;;;20.40;99.90;;;;;;5076604;28;20054;-69
2023/08/21 08:31:17;;;;;;;231.40;221.52;;;20.50;99.90;;;;;;5089706;28;20040;-69
2023/08/21 08:33:43;;;;;;;231.30;220.77;;;20.60;99.90;;;;;;5068490;28;20036;-69
2023/08/21 08:36:09;;;;;;;166.50;159.00;;;20.70;99.90;;;;;;5081486;28;20043;-68
2023/08/21 08:38:34;;;;;;;269.98;258.00;;;20.80;99.90;;;;;;5076542;28;20454;-69
2023/08/21 08:41:05;;;;;;;291.77;278.65;;;20.90;99.90;;;;;;5091058;28;20027;-69
2023/08/21 08:43:35;;;;;;;328.15;313.17;;;21.00;99.90;;;;;;5082692;28;20690;-69
2023/08/21 08:46:02;;;;;;;375.02;357.25;;;21.20;99.90;;;;;;5088651;28;20071;-69
2023/08/21 08:48:28;;;;;;;403.88;383.85;;;21.20;99.90;;;;;;5096494;28;20051;-69
2023/08/21 08:50:54;;;;;;;360.08;343.25;;;21.40;99.90;;;;;;5069258;28;20492;-68
2023/08/21 08:53:19;;;;;;;442.02;419.65;;;21.70;99.90;;;;;;5087790;28;20123;-69
2023/08/21 08:55:45;;;;;;;413.73;393.50;;;22.30;99.90;;;;;;5078709;28;20044;-69
2023/08/21 08:58:11;;;;;;;321.85;307.02;;;23.00;99.90;;;;;;5078801;28;21146;-69
2023/08/21 09:00:37;;;;;;;417.00;396.67;;;23.90;99.90;;;;;;5097953;28;20117;-69
2023/08/21 09:03:03;;;;;;;390.05;371.20;;;24.50;99.90;;;;;;5067981;28;20476;-69
2023/08/21 09:05:29;;;;;;;377.23;359.33;;;25.00;99.90;;;;;;5082137;28;20055;-69
2023/08/21 09:08:10;;;;;;;394.50;374.95;;;25.40;99.90;;;;;;5084982;28;20031;-69
2023/08/21 09:10:38;;;;;;;310.60;296.10;;;25.70;99.90;;;;;;5080965;28;20040;-69
2023/08/21 09:13:18;;;;;;;407.45;387.42;;;25.90;99.90;;;;;;5067540;28;20040;-69
2023/08/21 09:15:49;;;;;;;327.95;312.75;;;26.20;99.90;;;;;;5080345;28;20098;-69
2023/08/21 09:18:15;;;;;;;283.13;270.70;;;26.50;99.90;;;;;;5084578;28;20105;-69
2023/08/21 09:20:42;;;;;;;163.35;155.65;;;26.80;99.90;;;;;;5080456;28;20135;-69
2023/08/21 09:23:12;;;;;;;117.70;112.30;;;27.00;99.90;;;;;;5076844;28;20101;-69
2023/08/21 09:25:39;;;;;;;90.97;86.80;;;27.00;99.90;;;;;;5068828;28;20044;-69
2023/08/21 09:28:08;;;;;;;92.20;88.15;;;27.10;99.90;;;;;;5087521;28;20043;-69
2023/08/21 09:30:54;;;;;;;63.80;60.72;;;27.20;99.90;;;;;;5086615;28;20054;-69
2023/08/21 09:33:21;;;;;;;92.65;88.43;;;27.20;99.90;;;;;;5082921;28;20047;-69
2023/08/21 09:35:48;;;;;;;162.88;155.80;;;27.30;99.90;;;;;;5084992;28;20381;-69
2023/08/21 09:38:16;;;;;;;67.90;64.60;;;27.20;99.90;;;;;;5084708;28;20049;-69
2023/08/21 09:40:44;;;;;;;179.27;170.68;;;27.30;99.90;;;;;;5086762;28;20448;-69
2023/08/21 09:43:11;;;;;;;253.05;241.98;;;27.40;99.90;;;;;;5085632;28;20140;-69
2023/08/21 09:45:37;;;;;;;72.35;69.00;;;27.30;99.90;;;;;;5077980;28;20728;-69
2023/08/21 09:48:04;;;;;;;173.10;165.35;;;27.10;99.90;;;;;;5068113;28;20181;-68
2023/08/21 09:50:30;;;;;;;166.25;158.90;;;27.10;99.90;;;;;;5080562;28;20129;-69
2023/08/21 09:52:58;;;;;;;267.23;255.23;;;27.00;99.90;;;;;;5086259;28;20046;-68
2023/08/21 09:55:26;;;;;;;128.98;123.07;;;26.90;99.90;;;;;;5080904;28;20123;-69
2023/08/21 09:57:58;;;;;;;133.02;127.00;;;27.00;99.90;;;;;;5070588;28;20055;-69
2023/08/21 10:00:34;;;;;;;149.93;143.02;;;27.10;99.90;;;;;;5097877;28;20044;-68
2023/08/21 10:03:10;;;;;;;101.65;96.47;;;27.20;99.90;;;;;;5085585;28;20044;-69
2023/08/21 10:05:37;;;;;;;185.65;177.60;;;27.30;99.90;;;;;;5076201;28;20055;-69
2023/08/21 10:08:04;;;;;;;308.52;294.15;;;27.30;99.90;;;;;;5100544;28;20036;-68
2023/08/21 10:10:39;;;;;;;162.85;155.75;;;27.20;98.90;;;;;;5084074;28;20093;-69
2023/08/21 10:13:06;;;;;;;334.00;318.27;;;27.10;99.00;;;;;;5100609;28;20131;-69
2023/08/21 10:15:33;;;;;;;251.38;239.10;;;27.10;99.10;;;;;;5083091;28;20074;-68
2023/08/21 10:18:38;;;;;;;243.93;232.65;;;27.20;99.10;;;;;;5091034;28;20055;-68
2023/08/21 10:21:21;;;;;;;;;;;27.20;99.10;;;;;;5085112;28;20427;-69
2023/08/21 10:23:51;;;;;;;274.02;261.25;;;27.20;98.50;;;;;;5083454;28;19946;-69
2023/08/21 10:26:22;;;;;;;156.82;149.73;;;27.30;98.00;;;;;;5085230;28;20044;-68
2023/08/21 10:29:14;;;;;;;298.20;284.20;;;27.30;98.60;;;;;;5083010;28;20549;-68
2023/08/21 10:31:42;;;;;;;321.92;307.00;;;27.30;98.70;;;;;;5076846;28;20044;-69
2023/08/21 10:34:10;;;;;;;257.00;245.18;;;27.40;97.60;;;;;;5075162;28;20098;-67
2023/08/21 10:36:42;;;;;;;177.10;169.13;;;27.50;97.30;;;;;;5098354;28;20044;-68
2023/08/21 10:39:24;;;;;;;276.33;263.73;;;27.50;98.50;;;;;;5103250;28;20051;-69
2023/08/21 10:42:09;;;;;;;124.03;118.30;;;27.60;97.60;;;;;;5087209;28;20074;-68
2023/08/21 10:44:38;;;;;;;193.48;184.60;;;27.50;98.80;;;;;;5104629;28;20067;-68
2023/08/21 10:47:16;;;;;;;117.95;112.55;;;27.70;98.20;;;;;;5087227;28;20460;-68
2023/08/21 10:49:43;;;;;;;136.07;129.98;;;27.80;98.40;;;;;;5058796;28;20067;-68
2023/08/21 10:52:09;;;;;;;140.55;134.23;;;27.90;98.10;;;;;;5067285;28;20724;-68
2023/08/21 10:54:49;;;;;;;70.15;66.72;;;28.00;97.40;;;;;;5104405;28;20047;-68
2023/08/21 10:57:15;;;;;;;123.15;117.35;;;28.10;97.70;;;;;;5073160;28;20151;-69
2023/08/21 10:59:54;;;;;;;152.82;145.88;;;28.20;97.50;;;;;;5076138;28;20165;-68
2023/08/21 11:02:20;;;;;;;220.80;210.88;;;28.10;96.50;;;;;;5066625;28;20597;-69
2023/08/21 11:04:46;;;;;;;139.00;132.80;;;28.10;96.30;;;;;;5080163;28;20516;-67
2023/08/21 11:07:12;;;;;;;132.05;126.30;;;28.00;96.80;;;;;;5079269;28;20047;-67
2023/08/21 11:09:38;;;;;;;71.90;68.53;;;28.10;96.30;;;;;;5100726;28;20571;-67
2023/08/21 11:12:12;;;;;;;73.78;70.20;;;28.20;96.40;;;;;;5067780;28;20052;-68
2023/08/21 11:14:38;;;;;;;129.93;124.15;;;28.30;97.40;;;;;;5102459;28;20226;-67
2023/08/21 11:17:05;;;;;;;72.55;69.15;;;28.60;96.30;;;;;;5087563;28;20039;-67
2023/08/21 11:19:35;;;;;;;46.20;43.83;;;28.40;94.60;;;;;;5080715;28;20067;-67
2023/08/21 11:22:04;;;;;;;189.70;181.25;;;28.00;96.50;;;;;;5067346;28;20118;-67
2023/08/21 11:24:50;;;;;;;62.35;59.42;;;28.10;95.00;;;;;;5100464;27;20082;-68
2023/08/21 11:27:19;;;;;;;52.33;49.80;;;28.00;95.40;;;;;;5064696;28;20479;-67
2023/08/21 11:29:47;;;;;;;67.40;64.25;;;27.90;95.30;;;;;;5102826;28;20096;-67
2023/08/21 11:32:17;;;;;;;36.20;34.28;;;27.40;94.80;;;;;;5078589;28;20491;-67
2023/08/21 11:34:49;;;;;;;53.65;50.80;;;26.80;95.80;;;;;;5065429;28;20036;-67
2023/08/21 11:37:20;;;;;;;40.63;38.33;;;26.70;96.30;;;;;;5069614;28;20048;-68
2023/08/21 11:39:52;;;;;;;30.45;28.45;;;26.90;97.40;;;;;;5092602;28;20032;-67
2023/08/21 11:42:19;;;;;;;28.92;27.27;;;27.20;98.20;;;;;;5079919;28;20048;-67
2023/08/21 11:44:51;;;;;;;32.00;29.98;;;27.60;97.30;;;;;;5087298;28;20044;-67
2023/08/21 11:47:18;;;;;;;23.83;22.35;;;27.90;96.40;;;;;;5089837;28;20070;-67
2023/08/21 11:49:47;;;;;;;117.65;112.25;;;28.30;96.60;;;;;;5085547;28;20504;-66
2023/08/21 11:52:13;;;;;;;29.23;27.48;;;28.60;94.20;;;;;;5086458;28;20508;-67
2023/08/21 11:54:40;;;;;;;52.05;49.22;;;28.30;93.90;;;;;;5081184;28;20048;-67
2023/08/21 11:57:13;;;;;;;37.47;35.05;;;28.20;95.30;;;;;;5071450;28;20069;-67
2023/08/21 11:59:39;;;;;;;78.20;74.55;;;28.20;96.30;;;;;;5088084;28;20495;-68
2023/08/21 12:02:17;;;;;;;38.55;36.50;;;28.50;94.30;;;;;;5087840;28;20044;-67
2023/08/21 12:04:43;;;;;;;18.90;17.40;;;28.50;94.10;;;;;;5090230;28;20454;-67